Aviation Digital Data Service (ADDS)

Output produced by METARs form (2326 UTC 23 May 2022)
found at http://www.aviationweather.gov/metar/data/
 
ENAT 232320Z 14005KT CAVOK 08/03 Q1011 RMK WIND 700FT 17013KT
TAF ENAT 231400Z 2315/2321 17008KT 9999 FEW025
       
ENAN 232320Z AUTO 17012KT 9999 NCD 11/05 Q1005
TAF ENAN 2318/2418 17008KT CAVOK
       
ENML 232320Z AUTO 01010KT 9999NDV -RA FEW043/// 11/09 Q1001
TAF ENML 231400Z 2315/2322 20008KT 9999 FEW035 BKN060
       
ENNA 232320Z AUTO 20011KT 9999 NCD 08/02 Q1012 RMK WIND 1800FT 20028KT
TAF ENNA 2318/2418 18015KT 9999 FEW040
       
ENDU 232320Z VRB02KT CAVOK 10/04 Q1007 RMK WIND 1100FT 05003KT WIND 2200FT 15015KT
TAF ENDU 2318/2418 13006KT 9999 FEW045
       
ENBS 232320Z AUTO 19008KT 130V230 9999 BKN033/// 02/M02 Q1014
ENBR 232320Z AUTO 13006KT 9999 -RA OVC035/// 11/09 Q1000 RMK WIND 1200FT 12019KT
TAF ENBR 2318/2418 16008KT 9999 -RA FEW008 BKN025 
     PROB40 
     TEMPO 2318/2416 RA BKN012 
     BECMG 2415/2418 17018KT 
     PROB40 2416/2418 1500 -DZ BR OVC004
       
ENBO 232320Z 10011KT CAVOK 14/03 Q1004
TAF ENBO 2318/2418 10015KT CAVOK
       
ENBL 232120Z VRB02KT 9999 8000W -RA FEW/// SCT030 BKN035 09/07 Q1001
ENBN 232320Z AUTO 15014KT 9999NDV NCD 14/06 Q1003
TAF ENBN 232000Z 2321/2406 16014KT 9999 FEW040 BKN070
       
ENEV 232320Z 13011KT CAVOK 14/04 Q1006 RMK WIND 1400FT 11015KT
TAF ENEV 2318/2418 14009KT CAVOK
       
ENFL 232320Z AUTO 11011KT 9999NDV -RA OVC032/// 10/09 Q1000
TAF ENFL 232000Z 2321/2406 10008KT 9999 -RA FEW010 BKN025 
     PROB40 
     TEMPO 2321/2406 RA BKN012
       
ENHK 232320Z AUTO 09011KT 9999 NCD 09/04 Q1009
ENHD 232320Z AUTO 10010KT 9999 -RA FEW010/// SCT029/// 12/10 Q0998
ENKR 232320Z AUTO 12003KT 070V140 9999 NCD 03/M04 Q1015 RMK WIND 731FT 11007KT
TAF ENKR 232000Z 2321/2406 15008KT 9999 FEW040
       
ENMS 232050Z 25003KT CAVOK 13/05 Q1004 RMK WIND 412FT VRB02KT
ENCN 232320Z AUTO 09010KT 9999 OVC051/// 14/08 Q1001
TAF ENCN 231400Z 2315/2322 11010KT 9999 SCT030 BKN060
       
ENKB 232320Z AUTO VRB03KT 9999 -DZ SCT062/// 10/09 Q1001 RMK WIND 745FT 03004KT
TAF ENKB 231400Z 2315/2321 13008KT 9999 FEW030 BKN060
       
ENOL 232320Z 31007KT CAVOK 11/09 Q1002
TAF ENOL 2318/2418 14008KT CAVOK 
     TEMPO 2406/2412 14018KT
       
ENGM 232320Z 00000KT 9999 SCT046 BKN052 10/07 Q1006
TAF ENGM 2318/2418 16010KT 9999 BKN040 
     TEMPO 2318/2406 VRB05KT 
     BECMG 2416/2418 BKN012 
     TEMPO 2416/2418 4000 SHRA BR BKN007 SCT020CB
       
ENRO 232320Z AUTO 11009KT 100V160 9999NDV OVC072/// 09/04 Q1005
ENRY 232320Z AUTO 08004KT 9999NDV FEW053/// 11/07 Q1005
TAF ENRY 2318/2418 20010KT 9999 SCT030 
     BECMG 2318/2320 10008KT 
     BECMG 2414/2416 BKN012 
     TEMPO 2414/2418 4000 SHRA BR BKN007 SCT020CB
       
ENSG 231950Z VRB01KT 9999 -SHRA FEW005 BKN039 09/06 Q1003 RMK WIND 3806FT 16024KT
ENSR 232320Z AUTO 17009KT 140V200 9999 NCD 11/04 Q1009 RMK WIND RWY32 17009KT WIND 1118FT 15007KT
ENZV 232320Z AUTO 12007KT 9999 -RA FEW044/// OVC062/// 13/11 Q0998
TAF AMD ENZV 2320/2418 14010KT 9999 -RA FEW030 BKN050 
     PROB40 
     TEMPO 2320/2414 RA BKN014 
     BECMG 2402/2405 06008KT 
     BECMG 2407/2409 13012KT 
     TEMPO 2409/2418 15018G35KT 
     PROB40 2414/2418 1500 -DZ BR OVC004
       
ENST 232020Z 18014G33KT 140V220 CAVOK 17/04 Q1003 RMK WIND 300FT 16015G26KT
ENSS 232320Z AUTO 14017KT 9999 NCD 02/00 Q1016 RMK WIND 0354FT 13016KT
ENTO 232320Z AUTO VRB02KT 9999 SCT041/// OVC057/// 12/09 Q1005
TAF ENTO 2318/2418 16010KT 9999 SCT030 
     TEMPO 2320/2406 VRB05KT 
     BECMG 2412/2414 BKN012 
     TEMPO 2412/2417 4000 SHRA BR BKN007 SCT020CB
       
ENTC 232320Z AUTO 04003KT 9999 FEW120/// 09/03 Q1007 RMK WIND 2600FT 17029KT
TAF ENTC 2318/2418 19006KT CAVOK
       
ENVA 232320Z 15011KT 130V190 CAVOK 14/06 Q1003 RMK WIND 670FT 17018KT
TAF ENVA 2318/2418 15012KT 9999 FEW040 
     TEMPO 2318/2414 17015G25KT 
     BECMG 2414/2416 09008KT
       
ENAL 232320Z AUTO 00000KT 9999 -RA OVC048/// 11/09 Q1000
TAF ENAL 231400Z 2315/2321 16008KT 9999 FEW020 BKN040